Terminal Aerodrome Forecast
Issued by NWS

Home | Current Version | Previous Version | Text Only | Print | Product List | Glossary On
Versions: 1 2 3 4 5 6 7 8 9 10 11 12 13 14 15
000
FTUS46 KSGX 242320
TAFSNA
TAF
KSNA 242320Z 2500/2524 21010KT P6SM SCT025 BKN035 BKN050
     FM250300 20005KT P6SM SCT020 BKN035 BKN050
     FM250600 19005KT P6SM SCT020 OVC030
     FM251600 20010G15KT P6SM SCT020 OVC030
     FM252000 22010G15KT P6SM VCSH SCT015 OVC030=

USA.gov is the U.S. government's official web portal to all federal, state and local government web resources and services.